Weather reports worldwide

Advertisment
Bolzano, Italy (16020): temperature & dewpoint: 12.08.2019 03:00:00 - 18.08.2019 03:00:00 (CEST)Bolzano, Italy (16020): wind speed: 12.08.2019 03:00:00 - 18.08.2019 03:00:00 (CEST)Bolzano, Italy (16020): wind direction: 12.08.2019 03:00:00 - 18.08.2019 03:00:00 (CEST)Bolzano, Italy (16020): visibility: 12.08.2019 03:00:00 - 18.08.2019 03:00:00 (CEST)
Date & Time tt [°C] td [°C] ff [km/h] ff [kn] dd vv [km]
18.08.2019 03:00:00 - - - - - -
18.08.2019 02:00:00 - - - - - -
18.08.2019 01:00:00 - - - - - -
18.08.2019 00:00:00 - - - - - -
17.08.2019 23:00:00 22,0 17,0 4 2 - 10
17.08.2019 22:00:00 23,0 17,0 4 2 - 10
17.08.2019 21:00:00 24,0 16,0 4 2 - 10
17.08.2019 20:00:00 25,0 16,0 8 4 S 10
17.08.2019 19:00:00 27,0 16,0 8 4 SSW 10
17.08.2019 18:00:00 27,0 14,0 4 2 - 10
17.08.2019 17:00:00 27,0 15,0 4 2 - 10
17.08.2019 16:00:00 27,0 14,0 2 1 - 10
17.08.2019 15:00:00 27,0 14,0 5 3 - 10
17.08.2019 14:00:00 26,0 14,0 4 2 - 10
17.08.2019 13:00:00 24,0 14,0 4 2 - 10
17.08.2019 12:00:00 24,0 14,0 4 2 - 10
17.08.2019 11:00:00 22,0 14,0 2 1 - 10
17.08.2019 10:00:00 21,0 14,0 2 1 - 10
17.08.2019 09:00:00 20,0 14,0 4 2 - 10
17.08.2019 08:00:00 18,0 16,0 4 2 - 10
17.08.2019 07:00:00 17,0 15,0 5 3 - 10
17.08.2019 06:00:00 - - - - - -
17.08.2019 05:00:00 - - - - - -
17.08.2019 04:00:00 - - - - - -
17.08.2019 03:00:00 - - - - - -
17.08.2019 02:00:00 - - - - - -
17.08.2019 01:00:00 - - - - - -
17.08.2019 00:00:00 - - - - - -
16.08.2019 23:00:00 20,0 13,0 4 2 NW 10
16.08.2019 22:00:00 21,0 13,0 8 4 S 10
16.08.2019 21:00:00 22,0 13,0 9 5 S 10
16.08.2019 20:00:00 25,0 12,0 15 8 SSE 10
16.08.2019 19:00:00 26,0 13,0 13 7 SSE 10
16.08.2019 18:00:00 28,0 11,0 13 7 S 10
16.08.2019 17:00:00 29,0 11,0 11 6 S 10
16.08.2019 16:00:00 29,0 9,0 11 6 S 10
16.08.2019 15:00:00 29,0 8,0 8 4 S 10
16.08.2019 14:00:00 28,0 10,0 5 3 - 10
16.08.2019 13:00:00 26,0 11,0 5 3 - 10
16.08.2019 12:00:00 24,0 12,0 5 3 - 10
16.08.2019 11:00:00 22,0 14,0 4 2 - 10
16.08.2019 10:00:00 20,0 14,0 4 2 - 10
16.08.2019 09:00:00 17,0 15,0 4 2 - 10
16.08.2019 08:00:00 15,0 14,0 4 2 - 10
16.08.2019 07:00:00 15,0 14,0 0 0 N 10
16.08.2019 06:00:00 - - - - - -
16.08.2019 05:00:00 - - - - - -
16.08.2019 04:00:00 - - - - - -
16.08.2019 03:00:00 - - - - - -
16.08.2019 02:00:00 - - - - - -
16.08.2019 01:00:00 - - - - - -
16.08.2019 00:00:00 - - - - - -
15.08.2019 23:00:00 17,0 15,0 9 5 - 10
15.08.2019 22:00:00 19,0 16,0 9 5 - 7
15.08.2019 21:00:00 24,0 14,0 9 5 S 10
15.08.2019 20:00:00 24,0 14,0 11 6 S 10
15.08.2019 19:00:00 25,0 13,0 8 4 SSE 10
15.08.2019 18:00:00 27,0 14,0 9 5 SSE 10
15.08.2019 17:00:00 28,0 13,0 15 8 S 10
15.08.2019 16:00:00 29,0 11,0 8 4 S 10
15.08.2019 15:00:00 28,0 11,0 5 3 - 10
15.08.2019 14:00:00 26,0 12,0 5 3 - 10
15.08.2019 13:00:00 26,0 12,0 5 3 - 10
15.08.2019 12:00:00 23,0 10,0 4 2 - 10
15.08.2019 11:00:00 21,0 10,0 2 1 - 10
15.08.2019 10:00:00 20,0 10,0 2 1 - 10
15.08.2019 09:00:00 19,0 11,0 2 1 - 10
15.08.2019 08:00:00 18,0 13,0 2 1 - 10
15.08.2019 07:00:00 18,0 10,0 2 1 - 10
15.08.2019 06:00:00 - - - - - -
15.08.2019 05:00:00 - - - - - -
15.08.2019 04:00:00 - - - - - -
15.08.2019 03:00:00 - - - - - -
15.08.2019 02:00:00 - - - - - -
15.08.2019 01:00:00 - - - - - -
15.08.2019 00:00:00 - - - - - -
14.08.2019 23:00:00 - - - - - -
14.08.2019 22:00:00 21,0 12,0 4 2 - 10
14.08.2019 21:00:00 23,0 11,0 4 2 - 10
14.08.2019 20:00:00 24,0 10,0 5 3 - 10
14.08.2019 19:00:00 27,0 7,0 5 3 - 10
14.08.2019 18:00:00 30,0 7,0 4 2 - 10
14.08.2019 17:00:00 28,0 7,0 4 2 - 10
14.08.2019 16:00:00 30,0 3,0 8 4 - 10
14.08.2019 15:00:00 29,0 3,0 11 6 - 10
14.08.2019 14:00:00 28,0 7,0 8 4 - 10
14.08.2019 13:00:00 27,0 7,0 11 6 NW 10
14.08.2019 12:00:00 26,0 8,0 4 2 - 10
14.08.2019 11:00:00 24,0 8,0 4 2 - 10
14.08.2019 10:00:00 23,0 8,0 5 3 - 10
14.08.2019 09:00:00 20,0 11,0 5 3 - 10
14.08.2019 08:00:00 17,0 10,0 4 2 - 10
14.08.2019 07:00:00 15,0 11,0 4 2 - 10
14.08.2019 06:00:00 - - - - - -
14.08.2019 05:00:00 - - - - - -
14.08.2019 04:00:00 - - - - - -
14.08.2019 03:00:00 - - - - - -
14.08.2019 02:00:00 - - - - - -
14.08.2019 01:00:00 - - - - - -
14.08.2019 00:00:00 - - - - - -
13.08.2019 23:00:00 21,0 11,0 5 3 - 10
13.08.2019 22:00:00 22,0 11,0 5 3 - 10
13.08.2019 21:00:00 22,0 12,0 8 4 N 10
13.08.2019 20:00:00 23,0 12,0 24 13 NW 10
13.08.2019 19:00:00 23,0 12,0 26 14 NW 10
13.08.2019 18:00:00 26,0 11,0 26 14 NW 10
13.08.2019 17:00:00 27,0 12,0 21 11 NW 10
13.08.2019 16:00:00 27,0 12,0 21 11 NW 10
13.08.2019 15:00:00 29,0 13,0 15 8 WNW 10
13.08.2019 14:00:00 29,0 13,0 9 5 NW 10
13.08.2019 13:00:00 28,0 13,0 15 8 NW 10
13.08.2019 12:00:00 27,0 12,0 15 8 NNW 10
13.08.2019 11:00:00 26,0 13,0 5 3 - 10
13.08.2019 10:00:00 24,0 15,0 4 2 ESE 10
13.08.2019 09:00:00 23,0 17,0 0 0 N 10
13.08.2019 08:00:00 21,0 17,0 0 0 N 10
13.08.2019 07:00:00 19,0 16,0 4 2 - 10
13.08.2019 06:00:00 - - - - - -
13.08.2019 05:00:00 - - - - - -
13.08.2019 04:00:00 - - - - - -
13.08.2019 03:00:00 - - - - - -
13.08.2019 02:00:00 - - - - - -
13.08.2019 01:00:00 - - - - - -
13.08.2019 00:00:00 - - - - - -
12.08.2019 23:00:00 - - - - - -
12.08.2019 22:00:00 22,0 18,0 13 7 NNW 10
12.08.2019 21:00:00 22,0 18,0 8 4 - 9
12.08.2019 20:00:00 27,0 16,0 15 8 S 10
12.08.2019 19:00:00 28,0 15,0 11 6 S 10
12.08.2019 18:00:00 28,0 16,0 15 8 SSE 10
12.08.2019 17:00:00 30,0 16,0 11 6 S 10
12.08.2019 16:00:00 32,0 16,0 11 6 SE 10
12.08.2019 15:00:00 30,0 17,0 8 4 NE 10
12.08.2019 14:00:00 29,0 18,0 5 3 ENE 10
12.08.2019 13:00:00 28,0 23,0 8 4 SSW 9
12.08.2019 12:00:00 28,0 20,0 4 2 NNW 10
12.08.2019 11:00:00 28,0 21,0 0 0 N 10
12.08.2019 10:00:00 27,0 20,0 5 3 S 10
12.08.2019 09:00:00 25,0 20,0 0 0 N 10
12.08.2019 08:00:00 21,0 20,0 0 0 N 10
12.08.2019 07:00:00 21,0 20,0 0 0 N 10
12.08.2019 06:00:00 - - - - - -
12.08.2019 05:00:00 - - - - - -
12.08.2019 04:00:00 - - - - - -
12.08.2019 03:00:00 - - - - - -

tt = temperature
td = dewpoint
ff = wind speed
dd = wind direction
vv = visibility

Next stations